createdAt,value
2023-01-03T01:09:38.429Z,32.11
2023-01-03T01:17:38.355Z,32.11
2023-01-03T01:26:38.306Z,32.04
2023-01-03T05:27:36.140Z,31.87
2023-01-03T05:28:36.127Z,31.86
2023-01-03T05:29:36.117Z,31.89
2023-01-03T05:30:36.192Z,31.88
2023-01-03T05:31:36.160Z,31.90
2023-01-03T05:32:36.093Z,31.91
2023-01-03T05:33:36.185Z,31.91
2023-01-03T05:34:36.073Z,31.89
2023-01-03T05:35:36.061Z,31.91
2023-01-03T05:36:36.060Z,31.90
2023-01-03T05:37:36.052Z,31.89
2023-01-03T05:38:36.206Z,31.89
2023-01-03T05:39:36.031Z,31.90
2023-01-03T05:40:41.065Z,31.88
2023-01-03T05:41:36.022Z,31.88
2023-01-03T05:42:36.025Z,31.89
2023-01-03T05:43:36.094Z,31.88
2023-01-03T05:44:35.989Z,31.89
2023-01-03T05:45:36.011Z,31.88
2023-01-03T05:46:36.148Z,31.87
2023-01-03T05:58:35.978Z,31.86
2023-01-03T06:41:36.215Z,31.88
2023-01-03T23:16:26.720Z,32.35
2023-01-03T23:17:26.626Z,32.36
2023-01-03T23:18:26.620Z,32.36
2023-01-03T23:19:26.633Z,32.36
2023-01-03T23:20:26.584Z,32.35
2023-01-03T23:21:26.584Z,32.36
2023-01-03T23:22:26.568Z,32.39
2023-01-03T23:23:26.552Z,32.38
2023-01-03T23:24:26.554Z,32.36
2023-01-03T23:25:26.550Z,32.38
2023-01-03T23:26:26.523Z,32.36
2023-01-03T23:27:26.521Z,32.34
2023-01-03T23:28:26.507Z,32.37
2023-01-03T23:29:26.503Z,32.35
2023-01-03T23:30:26.591Z,32.38
2023-01-03T23:31:26.635Z,32.37
2023-01-03T23:32:26.475Z,32.36
2023-01-03T23:33:26.470Z,32.37
2023-01-03T23:34:26.481Z,32.37
2023-01-03T23:35:26.452Z,32.38
2023-01-03T23:36:26.444Z,32.37
2023-01-03T23:37:26.441Z,32.37
2023-01-03T23:38:26.432Z,32.37
2023-01-03T23:39:26.416Z,32.35
2023-01-03T23:40:26.417Z,32.36
2023-01-03T23:41:26.397Z,32.37
2023-01-03T23:42:26.385Z,32.38
2023-01-03T23:43:26.376Z,32.36
2023-01-03T23:44:26.366Z,32.36
2023-01-03T23:45:26.360Z,32.34
2023-01-03T23:46:26.440Z,32.38
2023-01-03T23:47:26.342Z,32.37
2023-01-03T23:48:26.331Z,32.36
2023-01-03T23:49:26.320Z,32.36
2023-01-03T23:50:26.343Z,32.37
2023-01-03T23:51:26.305Z,32.36
2023-01-03T23:52:26.294Z,32.37
2023-01-03T23:53:26.289Z,32.36
2023-01-03T23:54:26.284Z,32.36
2023-01-03T23:55:26.276Z,32.38
2023-01-03T23:56:26.276Z,32.38
2023-01-03T23:57:26.249Z,32.36
2023-01-03T23:58:26.248Z,32.35
2023-01-03T23:59:26.231Z,32.35
